Time,TemperatureF,DewpointF,PressureIn,WindDirection,WindDirectionDegrees,WindSpeedMPH,WindSpeedGustMPH,Humidity,HourlyPrecipIn,Conditions,Clouds,dailyrainin,SoftwareType,DateUTC
2013-01-20 00:01:00,32.0,25.9,30.00,South,180,3.5,3.5,78,0.00,RA,,0.00,WeatherDisplay:10.37,2013-01-20 05:01:00,
2013-01-20 00:03:00,32.0,25.9,30.00,South,180,5.8,5.8,78,0.00,RA,,0.00,WeatherDisplay:10.37,2013-01-20 05:03:00,
2013-01-20 00:04:00,32.0,25.9,30.00,South,180,5.8,5.8,78,0.00,RA,,0.00,WeatherDisplay:10.37,2013-01-20 05:04:00,
2013-01-20 00:09:00,32.9,25.8,30.00,SW,225,5.8,5.8,75,0.00,RA,,0.00,WeatherDisplay:10.37,2013-01-20 05:09:00,
2013-01-20 00:14:00,33.4,25.7,30.00,SE,135,8.1,8.1,73,0.00,CLR,,0.00,WeatherDisplay:10.37,2013-01-20 05:14:00,
2013-01-20 00:19:00,33.6,25.6,30.00,SE,135,5.8,5.8,72,0.00,CLR,,0.00,WeatherDisplay:10.37,2013-01-20 05:19:00,
2013-01-20 00:24:00,33.6,25.6,29.99,South,180,5.8,5.8,72,0.00,CLR,,0.00,WeatherDisplay:10.37,2013-01-20 05:24:00,
2013-01-20 00:29:00,34.5,25.7,29.99,South,180,8.1,8.1,70,0.00,CLR,,0.00,WeatherDisplay:10.37,2013-01-20 05:29:00,
2013-01-20 00:34:00,35.2,25.7,29.99,South,180,10.4,10.4,68,0.00,CLR,,0.00,WeatherDisplay:10.37,2013-01-20 05:34:00,
2013-01-20 00:39:00,35.6,25.4,29.99,SW,225,10.4,10.4,66,0.00,CLR,,0.00,WeatherDisplay:10.37,2013-01-20 05:39:00,
2013-01-20 00:44:00,35.8,25.5,29.99,SW,225,9.2,9.2,66,0.00,CLR,,0.00,WeatherDisplay:10.37,2013-01-20 05:44:00,
2013-01-20 00:49:00,36.0,25.3,29.99,SSE,158,9.2,9.2,65,0.00,CLR,,0.00,WeatherDisplay:10.37,2013-01-20 05:49:00,
2013-01-20 00:54:00,35.8,25.2,29.99,SSW,202,6.9,6.9,65,0.00,CLR,,0.00,WeatherDisplay:10.37,2013-01-20 05:54:00,
2013-01-20 00:59:00,35.6,25.4,29.99,South,180,8.1,8.1,66,0.00,CLR,,0.00,WeatherDisplay:10.37,2013-01-20 05:59:00,
2013-01-20 01:04:00,35.6,25.4,29.98,South,180,5.8,5.8,66,0.00,CLR,,0.00,WeatherDisplay:10.37,2013-01-20 06:04:00,
2013-01-20 01:09:00,35.2,25.4,29.98,South,180,6.9,6.9,67,0.00,CLR,,0.00,WeatherDisplay:10.37,2013-01-20 06:09:00,
2013-01-20 01:14:00,35.4,25.5,29.98,South,180,9.2,9.2,67,0.00,CLR,,0.00,WeatherDisplay:10.37,2013-01-20 06:14:00,
2013-01-20 01:19:00,35.4,25.5,29.98,SW,225,10.4,10.4,67,0.00,CLR,,0.00,WeatherDisplay:10.37,2013-01-20 06:19:00,
2013-01-20 01:24:00,35.8,25.5,29.98,South,180,8.1,8.1,66,0.00,CLR,,0.00,WeatherDisplay:10.37,2013-01-20 06:24:00,
2013-01-20 01:29:00,35.8,25.5,29.98,SSE,158,8.1,8.1,66,0.00,CLR,,0.00,WeatherDisplay:10.37,2013-01-20 06:29:00,
2013-01-20 01:34:00,35.8,25.5,29.97,South,180,6.9,6.9,66,0.00,CLR,,0.00,WeatherDisplay:10.37,2013-01-20 06:34:00,
2013-01-20 01:39:00,36.0,25.7,29.98,SE,135,8.1,8.1,66,0.00,CLR,,0.00,WeatherDisplay:10.37,2013-01-20 06:39:00,
2013-01-20 01:44:00,36.3,25.7,29.98,South,180,5.8,5.8,65,0.00,CLR,,0.00,WeatherDisplay:10.37,2013-01-20 06:44:00,
2013-01-20 01:50:00,36.1,25.5,29.98,South,180,6.9,6.9,65,0.00,CLR,,0.00,WeatherDisplay:10.37,2013-01-20 06:50:00,
2013-01-20 01:55:00,36.1,25.5,29.98,South,180,4.6,4.6,65,0.00,CLR,,0.00,WeatherDisplay:10.37,2013-01-20 06:55:00,
2013-01-20 02:00:00,36.0,25.3,29.98,SSE,158,4.6,6.0,65,0.00,CLR,,0.00,WeatherDisplay:10.37,2013-01-20 07:00:00,
2013-01-20 02:05:00,36.0,25.3,29.98,South,180,6.9,6.9,65,0.00,CLR,,0.00,WeatherDisplay:10.37,2013-01-20 07:05:00,
2013-01-20 02:10:00,35.6,25.4,29.99,South,180,8.1,8.1,66,0.00,CLR,,0.00,WeatherDisplay:10.37,2013-01-20 07:10:00,
2013-01-20 02:15:00,35.6,25.7,29.98,SW,225,6.9,6.9,67,0.00,CLR,,0.00,WeatherDisplay:10.37,2013-01-20 07:15:00,
2013-01-20 02:20:00,35.8,25.5,29.98,South,180,10.4,10.4,66,0.00,CLR,,0.00,WeatherDisplay:10.37,2013-01-20 07:20:00,
2013-01-20 02:25:00,35.8,25.5,29.98,South,180,5.8,5.8,66,0.00,CLR,,0.00,WeatherDisplay:10.37,2013-01-20 07:25:00,
2013-01-20 02:30:00,35.8,25.5,29.98,South,180,10.4,10.4,66,0.00,CLR,,0.00,WeatherDisplay:10.37,2013-01-20 07:30:00,
2013-01-20 02:35:00,35.8,25.9,29.98,South,180,8.1,8.1,67,0.00,CLR,,0.00,WeatherDisplay:10.37,2013-01-20 07:35:00,
2013-01-20 02:40:00,35.4,25.5,29.99,SW,225,5.8,5.8,67,0.00,CLR,,0.00,WeatherDisplay:10.37,2013-01-20 07:40:00,
2013-01-20 02:45:00,35.2,25.4,29.98,South,180,8.1,8.1,67,0.00,CLR,,0.00,WeatherDisplay:10.37,2013-01-20 07:45:00,
2013-01-20 02:50:00,34.5,25.0,29.98,South,180,5.8,5.8,68,0.00,CLR,,0.00,WeatherDisplay:10.37,2013-01-20 07:50:00,
2013-01-20 02:55:00,34.0,25.2,29.98,South,180,5.8,5.8,70,0.00,CLR,,0.00,WeatherDisplay:10.37,2013-01-20 07:55:00,
2013-01-20 03:00:00,33.6,25.2,29.98,South,180,5.8,5.8,71,0.00,CLR,,0.00,WeatherDisplay:10.37,2013-01-20 08:00:00,
2013-01-20 03:05:00,33.6,25.2,29.97,SSE,158,5.8,5.8,71,0.00,CLR,,0.00,WeatherDisplay:10.37,2013-01-20 08:05:00,
2013-01-20 03:10:00,33.8,25.4,29.97,South,180,5.8,5.8,71,0.00,CLR,,0.00,WeatherDisplay:10.37,2013-01-20 08:10:00,
2013-01-20 03:15:00,33.3,25.2,29.97,South,180,5.8,5.8,72,0.00,CLR,,0.00,WeatherDisplay:10.37,2013-01-20 08:15:00,
2013-01-20 03:20:00,32.9,25.2,29.97,South,180,8.1,8.1,73,0.00,CLR,,0.00,WeatherDisplay:10.37,2013-01-20 08:20:00,
2013-01-20 03:25:00,32.4,25.3,29.97,SE,135,9.2,9.2,75,0.00,CLR,,0.00,WeatherDisplay:10.37,2013-01-20 08:25:00,
2013-01-20 03:30:00,32.4,25.6,29.97,South,180,8.1,8.1,76,0.00,CLR,,0.00,WeatherDisplay:10.37,2013-01-20 08:30:00,
2013-01-20 03:35:00,32.4,25.6,29.97,South,180,5.8,5.8,76,0.00,CLR,,0.00,WeatherDisplay:10.37,2013-01-20 08:35:00,
2013-01-20 03:40:00,32.4,25.6,29.96,South,180,9.2,9.2,76,0.00,CLR,,0.00,WeatherDisplay:10.37,2013-01-20 08:40:00,
2013-01-20 03:45:00,32.2,25.5,29.96,NW,315,10.4,10.4,76,0.00,CLR,,0.00,WeatherDisplay:10.37,2013-01-20 08:45:00,
2013-01-20 03:50:00,32.2,25.8,29.96,SE,135,8.1,8.1,77,0.00,CLR,,0.00,WeatherDisplay:10.37,2013-01-20 08:50:00,
2013-01-20 03:55:00,31.6,25.3,29.96,NW,315,3.5,3.5,77,0.00,CLR,,0.00,WeatherDisplay:10.37,2013-01-20 08:55:00,
2013-01-20 04:00:00,31.8,25.7,29.95,SE,135,3.5,3.5,78,0.00,CLR,,0.00,WeatherDisplay:10.37,2013-01-20 09:00:00,
2013-01-20 04:05:00,31.8,25.7,29.95,SE,135,3.5,3.5,78,0.00,CLR,,0.00,WeatherDisplay:10.37,2013-01-20 09:05:00,
2013-01-20 04:10:00,31.8,25.4,29.95,NW,315,3.5,3.5,77,0.00,CLR,,0.00,WeatherDisplay:10.37,2013-01-20 09:10:00,
2013-01-20 04:15:00,32.0,25.9,29.95,SE,135,3.5,3.5,78,0.00,CLR,,0.00,WeatherDisplay:10.37,2013-01-20 09:15:00,
2013-01-20 04:20:00,32.5,26.4,29.95,South,180,5.8,5.8,78,0.00,CLR,,0.00,WeatherDisplay:10.37,2013-01-20 09:20:00,
2013-01-20 04:25:00,32.2,26.4,29.94,SW,225,8.1,8.1,79,0.00,CLR,,0.00,WeatherDisplay:10.37,2013-01-20 09:25:00,
2013-01-20 04:30:00,33.3,26.2,29.94,West,270,12.7,12.7,75,0.00,CLR,,0.00,WeatherDisplay:10.37,2013-01-20 09:30:00,
2013-01-20 04:35:00,33.6,26.2,29.94,WSW,248,9.2,9.2,74,0.00,CLR,,0.00,WeatherDisplay:10.37,2013-01-20 09:35:00,
2013-01-20 04:40:00,33.8,26.1,29.94,NW,315,5.8,5.8,73,0.00,CLR,,0.00,WeatherDisplay:10.37,2013-01-20 09:40:00,
2013-01-20 04:45:00,35.4,26.6,29.93,SE,135,11.5,11.5,70,0.00,CLR,,0.00,WeatherDisplay:10.37,2013-01-20 09:45:00,
2013-01-20 04:50:00,35.8,26.2,29.94,SW,225,10.4,10.4,68,0.00,CLR,,0.00,WeatherDisplay:10.37,2013-01-20 09:50:00,
2013-01-20 04:55:00,38.3,26.8,29.93,SW,225,12.7,12.7,63,0.00,CLR,,0.00,WeatherDisplay:10.37,2013-01-20 09:55:00,
2013-01-20 05:00:00,39.7,27.0,29.93,SW,225,12.7,12.7,60,0.00,CLR,,0.00,WeatherDisplay:10.37,2013-01-20 10:00:00,
2013-01-20 05:05:00,39.7,27.0,29.93,SW,225,15.0,15.0,60,0.00,CLR,,0.00,WeatherDisplay:10.37,2013-01-20 10:05:00,
2013-01-20 05:10:00,43.7,26.7,29.93,South,180,15.0,15.0,51,0.00,CLR,,0.00,WeatherDisplay:10.37,2013-01-20 10:10:00,
2013-01-20 05:15:00,44.1,28.0,29.93,SW,225,15.0,15.0,53,0.00,CLR,,0.00,WeatherDisplay:10.37,2013-01-20 10:15:00,
2013-01-20 05:20:00,44.4,27.4,29.93,South,180,15.0,15.0,51,0.00,CLR,,0.00,WeatherDisplay:10.37,2013-01-20 10:20:00,
2013-01-20 05:25:00,44.4,27.4,29.93,SSW,202,15.0,15.0,51,0.00,CLR,,0.00,WeatherDisplay:10.37,2013-01-20 10:25:00,
2013-01-20 05:30:00,44.6,27.6,29.93,SW,225,16.1,16.1,51,0.00,CLR,,0.00,WeatherDisplay:10.37,2013-01-20 10:30:00,
2013-01-20 05:35:00,45.1,27.6,29.93,South,180,18.4,18.4,50,0.00,CLR,,0.00,WeatherDisplay:10.37,2013-01-20 10:35:00,
2013-01-20 05:40:00,44.8,27.7,29.93,SW,225,19.6,19.6,51,0.00,CLR,,0.00,WeatherDisplay:10.37,2013-01-20 10:40:00,
2013-01-20 05:45:00,44.4,27.9,29.93,West,270,10.4,10.4,52,0.00,CLR,,0.00,WeatherDisplay:10.37,2013-01-20 10:45:00,
2013-01-20 05:50:00,44.2,27.7,29.93,SW,225,15.0,15.0,52,0.00,CLR,,0.00,WeatherDisplay:10.37,2013-01-20 10:50:00,
2013-01-20 05:55:00,44.6,27.6,29.93,South,180,12.7,12.7,51,0.00,CLR,,0.00,WeatherDisplay:10.37,2013-01-20 10:55:00,
2013-01-20 06:00:00,44.8,27.7,29.93,South,180,19.6,19.6,51,0.00,CLR,,0.00,WeatherDisplay:10.37,2013-01-20 11:00:00,
2013-01-20 06:05:00,44.8,27.7,29.93,South,180,13.8,13.8,51,0.00,CLR,,0.00,WeatherDisplay:10.37,2013-01-20 11:05:00,
2013-01-20 06:10:00,44.1,28.0,29.93,SE,135,12.7,12.7,53,0.00,CLR,,0.00,WeatherDisplay:10.37,2013-01-20 11:10:00,
2013-01-20 06:15:00,44.1,28.0,29.92,SW,225,11.5,11.5,53,0.00,CLR,,0.00,WeatherDisplay:10.37,2013-01-20 11:15:00,
2013-01-20 06:20:00,44.2,28.2,29.93,SSE,158,12.7,12.7,53,0.00,CLR,,0.00,WeatherDisplay:10.37,2013-01-20 11:20:00,
2013-01-20 06:25:00,44.2,28.2,29.92,SE,135,17.3,17.3,53,0.00,CLR,,0.00,WeatherDisplay:10.37,2013-01-20 11:25:00,
2013-01-20 06:30:00,44.6,28.0,29.93,NW,315,16.1,16.1,52,0.00,CLR,,0.00,WeatherDisplay:10.37,2013-01-20 11:30:00,
2013-01-20 06:35:00,44.8,28.2,29.93,West,270,19.6,19.6,52,0.00,CLR,,0.00,WeatherDisplay:10.37,2013-01-20 11:35:00,
2013-01-20 06:40:00,44.6,28.5,29.93,SW,225,16.1,16.1,53,0.00,CLR,,0.00,WeatherDisplay:10.37,2013-01-20 11:40:00,
2013-01-20 06:46:00,44.2,28.6,29.93,South,180,11.5,11.5,54,0.00,CLR,,0.00,WeatherDisplay:10.37,2013-01-20 11:46:00,
2013-01-20 06:51:00,44.2,28.6,29.93,SE,135,23.0,23.0,54,0.00,CLR,,0.00,WeatherDisplay:10.37,2013-01-20 11:51:00,
2013-01-20 06:56:00,44.1,28.5,29.93,SE,135,26.5,26.5,54,0.00,CLR,,0.00,WeatherDisplay:10.37,2013-01-20 11:56:00,
2013-01-20 07:01:00,44.2,28.6,29.93,South,180,15.0,15.0,54,0.00,CLR,,0.00,WeatherDisplay:10.37,2013-01-20 12:01:00,
2013-01-20 07:06:00,44.2,28.6,29.93,SW,225,20.7,20.7,54,0.00,CLR,,0.00,WeatherDisplay:10.37,2013-01-20 12:06:00,
2013-01-20 07:11:00,43.7,29.0,29.93,SE,135,15.0,15.0,56,0.00,CLR,,0.00,WeatherDisplay:10.37,2013-01-20 12:11:00,
2013-01-20 07:16:00,44.2,29.1,29.93,SE,135,16.1,16.1,55,0.00,CLR,,0.00,WeatherDisplay:10.37,2013-01-20 12:16:00,
2013-01-20 07:21:00,44.2,29.1,29.94,SE,135,16.1,16.1,55,0.00,CLR,,0.00,WeatherDisplay:10.37,2013-01-20 12:21:00,
2013-01-20 07:26:00,43.9,29.2,29.94,South,180,10.4,10.4,56,0.00,CLR,,0.00,WeatherDisplay:10.37,2013-01-20 12:26:00,
2013-01-20 07:31:00,44.1,28.9,29.94,West,270,18.4,18.4,55,0.00,CLR,,0.00,WeatherDisplay:10.37,2013-01-20 12:31:00,
2013-01-20 07:36:00,44.2,29.1,29.94,SW,225,23.0,23.0,55,0.00,CLR,,0.00,WeatherDisplay:10.37,2013-01-20 12:36:00,
2013-01-20 07:41:00,44.2,29.1,29.94,NW,315,17.3,17.3,55,0.00,CLR,,0.00,WeatherDisplay:10.37,2013-01-20 12:41:00,
2013-01-20 07:46:00,44.1,29.4,29.94,SW,225,12.7,12.7,56,0.00,CLR,,0.00,WeatherDisplay:10.37,2013-01-20 12:46:00,
2013-01-20 07:51:00,43.7,29.0,29.94,South,180,10.4,10.4,56,0.00,CLR,,0.00,WeatherDisplay:10.37,2013-01-20 12:51:00,
2013-01-20 07:56:00,43.7,29.5,29.94,West,270,15.0,15.0,57,0.00,CLR,,0.00,WeatherDisplay:10.37,2013-01-20 12:56:00,
2013-01-20 08:01:00,43.7,29.5,29.94,South,180,23.0,23.0,57,0.00,CLR,,0.00,WeatherDisplay:10.37,2013-01-20 13:01:00,
2013-01-20 08:06:00,43.9,29.2,29.93,SE,135,25.3,25.3,56,0.00,CLR,,0.00,WeatherDisplay:10.37,2013-01-20 13:06:00,
2013-01-20 08:11:00,44.6,29.4,29.94,West,270,17.3,17.3,55,0.00,CLR,,0.00,WeatherDisplay:10.37,2013-01-20 13:11:00,
2013-01-20 08:16:00,45.1,29.9,29.94,West,270,20.7,20.7,55,0.00,CLR,,0.00,WeatherDisplay:10.37,2013-01-20 13:16:00,
2013-01-20 08:21:00,45.7,30.0,29.94,SE,135,10.4,10.4,54,0.00,CLR,,0.00,WeatherDisplay:10.37,2013-01-20 13:21:00,
2013-01-20 08:26:00,46.2,30.0,29.93,SW,225,15.0,15.0,53,0.00,CLR,,0.00,WeatherDisplay:10.37,2013-01-20 13:26:00,
2013-01-20 08:31:00,46.8,30.0,29.94,SSE,158,23.0,23.0,52,0.00,CLR,,0.00,WeatherDisplay:10.37,2013-01-20 13:31:00,
2013-01-20 08:36:00,47.8,31.0,29.94,ESE,112,23.0,23.0,52,0.00,CLR,,0.00,WeatherDisplay:10.37,2013-01-20 13:36:00,
2013-01-20 08:41:00,48.4,31.5,29.94,SE,135,19.6,19.6,52,0.00,CLR,,0.00,WeatherDisplay:10.37,2013-01-20 13:41:00,
2013-01-20 08:46:00,48.6,30.7,29.94,SSW,202,15.0,15.0,50,0.00,CLR,,0.00,WeatherDisplay:10.37,2013-01-20 13:46:00,
2013-01-20 08:51:00,49.3,31.9,29.95,South,180,15.0,15.0,51,0.00,CLR,,0.00,WeatherDisplay:10.37,2013-01-20 13:51:00,
2013-01-20 08:56:00,49.5,31.6,29.94,NW,315,12.7,12.7,50,0.00,CLR,,0.00,WeatherDisplay:10.37,2013-01-20 13:56:00,
2013-01-20 09:01:00,50.2,31.7,29.95,South,180,16.1,16.1,49,0.00,CLR,,0.00,WeatherDisplay:10.37,2013-01-20 14:01:00,
2013-01-20 09:06:00,50.4,31.4,29.95,South,180,12.7,12.7,48,0.00,CLR,,0.00,WeatherDisplay:10.37,2013-01-20 14:06:00,
2013-01-20 09:11:00,50.5,30.5,29.95,NW,315,16.1,16.1,46,0.00,CLR,,0.00,WeatherDisplay:10.37,2013-01-20 14:11:00,
2013-01-20 09:16:00,50.9,31.4,29.95,SE,135,12.7,12.7,47,0.00,CLR,,0.00,WeatherDisplay:10.37,2013-01-20 14:16:00,
2013-01-20 09:21:00,51.4,31.3,29.96,SW,225,10.4,10.4,46,0.00,CLR,,0.00,WeatherDisplay:10.37,2013-01-20 14:21:00,
2013-01-20 09:26:00,51.3,31.7,29.96,NW,315,13.8,13.8,47,0.00,CLR,,0.00,WeatherDisplay:10.37,2013-01-20 14:26:00,
2013-01-20 09:31:00,50.7,31.7,29.96,SW,225,19.6,19.6,48,0.00,CLR,,0.00,WeatherDisplay:10.37,2013-01-20 14:31:00,
2013-01-20 09:37:00,51.1,32.6,29.96,South,180,19.6,19.6,49,0.00,CLR,,0.00,WeatherDisplay:10.37,2013-01-20 14:37:00,
2013-01-20 09:42:00,51.1,31.0,29.96,West,270,12.7,12.7,46,0.00,CLR,,0.00,WeatherDisplay:10.37,2013-01-20 14:42:00,
2013-01-20 09:47:00,51.1,31.0,29.97,SW,225,16.1,16.1,46,0.00,CLR,,0.00,WeatherDisplay:10.37,2013-01-20 14:47:00,
2013-01-20 09:52:00,51.1,31.0,29.96,SW,225,16.1,16.1,46,0.00,CLR,,0.00,WeatherDisplay:10.37,2013-01-20 14:52:00,
2013-01-20 09:57:00,50.5,31.6,29.96,SW,225,20.7,20.7,48,0.00,CLR,,0.00,WeatherDisplay:10.37,2013-01-20 14:57:00,
2013-01-20 10:02:00,50.7,30.1,29.97,SW,225,15.0,15.0,45,0.00,CLR,,0.00,WeatherDisplay:10.37,2013-01-20 15:02:00,
2013-01-20 10:07:00,51.1,31.0,29.97,South,180,16.1,16.1,46,0.00,CLR,,0.00,WeatherDisplay:10.37,2013-01-20 15:07:00,
2013-01-20 10:12:00,50.9,32.9,29.96,South,180,13.8,13.8,50,0.00,CLR,,0.00,WeatherDisplay:10.37,2013-01-20 15:12:00,
2013-01-20 10:17:00,50.7,31.2,29.97,South,180,13.8,13.8,47,0.00,CLR,,0.00,WeatherDisplay:10.37,2013-01-20 15:17:00,
2013-01-20 10:22:00,50.7,31.2,29.97,South,180,13.8,13.8,47,0.00,CLR,,0.00,WeatherDisplay:10.37,2013-01-20 15:22:00,
2013-01-20 10:27:00,50.4,30.3,29.98,South,180,12.7,12.7,46,0.00,CLR,,0.00,WeatherDisplay:10.37,2013-01-20 15:27:00,
2013-01-20 10:32:00,50.7,32.7,29.98,SW,225,15.0,15.0,50,0.00,CLR,,0.00,WeatherDisplay:10.37,2013-01-20 15:32:00,
2013-01-20 10:37:00,50.7,30.7,29.98,SE,135,17.3,17.3,46,0.00,CLR,,0.00,WeatherDisplay:10.37,2013-01-20 15:37:00,
2013-01-20 10:42:00,51.1,32.6,29.98,South,180,10.4,10.4,49,0.00,CLR,,0.00,WeatherDisplay:10.37,2013-01-20 15:42:00,
2013-01-20 10:47:00,51.3,30.6,29.98,South,180,13.8,13.8,45,0.00,CLR,,0.00,WeatherDisplay:10.37,2013-01-20 15:47:00,
2013-01-20 10:52:00,50.9,30.3,29.98,SW,225,19.6,19.6,45,0.00,CLR,,0.00,WeatherDisplay:10.37,2013-01-20 15:52:00,
2013-01-20 10:57:00,50.5,30.5,29.98,SSE,158,17.3,17.3,46,0.00,CLR,,0.00,WeatherDisplay:10.37,2013-01-20 15:57:00,
2013-01-20 11:02:00,51.4,30.8,29.98,SE,135,15.0,15.0,45,0.00,CLR,,0.00,WeatherDisplay:10.37,2013-01-20 16:02:00,
2013-01-20 11:07:00,51.1,31.5,29.98,NW,315,19.6,19.6,47,0.00,CLR,,0.00,WeatherDisplay:10.37,2013-01-20 16:07:00,
2013-01-20 11:12:00,51.3,31.7,29.98,SW,225,9.2,9.2,47,0.00,CLR,,0.00,WeatherDisplay:10.37,2013-01-20 16:12:00,
2013-01-20 11:17:00,51.4,29.1,29.97,West,270,17.3,17.3,42,0.00,CLR,,0.00,WeatherDisplay:10.37,2013-01-20 16:17:00,
2013-01-20 11:22:00,52.2,30.9,29.98,SE,135,8.1,8.1,44,0.00,CLR,,0.00,WeatherDisplay:10.37,2013-01-20 16:22:00,
2013-01-20 11:27:00,52.7,31.9,29.96,South,180,8.1,8.1,45,0.00,CLR,,0.00,WeatherDisplay:10.37,2013-01-20 16:27:00,
2013-01-20 11:32:00,52.9,29.2,29.97,SW,225,19.6,19.6,40,0.00,CLR,,0.00,WeatherDisplay:10.37,2013-01-20 16:32:00,
2013-01-20 11:37:00,53.4,30.3,29.96,South,180,10.4,10.4,41,0.00,CLR,,0.00,WeatherDisplay:10.37,2013-01-20 16:37:00,
2013-01-20 11:42:00,53.4,32.0,29.97,South,180,13.8,13.8,44,0.00,CLR,,0.00,WeatherDisplay:10.37,2013-01-20 16:42:00,
2013-01-20 11:47:00,54.3,29.2,29.97,NW,315,8.1,8.1,38,0.00,CLR,,0.00,WeatherDisplay:10.37,2013-01-20 16:47:00,
2013-01-20 11:52:00,54.7,31.4,29.96,SE,135,5.8,5.8,41,0.00,CLR,,0.00,WeatherDisplay:10.37,2013-01-20 16:52:00,
2013-01-20 11:57:00,54.9,32.2,29.96,SSE,158,13.8,13.8,42,0.00,CLR,,0.00,WeatherDisplay:10.37,2013-01-20 16:57:00,
2013-01-20 12:02:00,55.0,29.2,29.95,WSW,248,12.7,12.7,37,0.00,CLR,,0.00,WeatherDisplay:10.37,2013-01-20 17:02:00,
2013-01-20 12:07:00,54.9,30.3,29.95,South,180,12.7,12.7,39,0.00,CLR,,0.00,WeatherDisplay:10.37,2013-01-20 17:07:00,
2013-01-20 12:12:00,55.0,31.1,29.94,South,180,12.7,12.7,40,0.00,CLR,,0.00,WeatherDisplay:10.37,2013-01-20 17:12:00,
2013-01-20 12:17:00,55.0,29.9,29.95,South,180,9.2,9.2,38,0.00,CLR,,0.00,WeatherDisplay:10.37,2013-01-20 17:17:00,
2013-01-20 12:22:00,54.5,30.0,29.94,South,180,12.7,12.7,39,0.00,CLR,,0.00,WeatherDisplay:10.37,2013-01-20 17:22:00,
2013-01-20 12:27:00,54.5,28.7,29.94,SW,225,10.4,10.4,37,0.00,CLR,,0.00,WeatherDisplay:10.37,2013-01-20 17:27:00,
2013-01-20 12:32:00,54.7,30.2,29.94,SSW,202,11.5,11.5,39,0.00,CLR,,0.00,WeatherDisplay:10.37,2013-01-20 17:32:00,
2013-01-20 12:37:00,54.5,28.7,29.94,WNW,292,13.8,13.8,37,0.00,CLR,,0.00,WeatherDisplay:10.37,2013-01-20 17:37:00,
2013-01-20 12:42:00,55.4,30.2,29.93,SSE,158,10.4,10.4,38,0.00,CLR,,0.00,WeatherDisplay:10.37,2013-01-20 17:42:00,
2013-01-20 12:47:00,55.2,30.0,29.93,SW,225,17.3,17.3,38,0.00,CLR,,0.00,WeatherDisplay:10.37,2013-01-20 17:47:00,
2013-01-20 12:52:00,54.0,28.3,29.93,SSW,202,29.9,29.9,37,0.00,CLR,,0.00,WeatherDisplay:10.37,2013-01-20 17:52:00,
2013-01-20 12:57:00,54.7,30.2,29.93,East,90,12.7,12.7,39,0.00,CLR,,0.00,WeatherDisplay:10.37,2013-01-20 17:57:00,
2013-01-20 13:02:00,54.7,26.1,29.92,South,180,20.7,20.7,33,0.00,CLR,,0.00,WeatherDisplay:10.37,2013-01-20 18:02:00,
2013-01-20 13:07:00,54.5,30.0,29.92,South,180,21.9,21.9,39,0.00,CLR,,0.00,WeatherDisplay:10.37,2013-01-20 18:07:00,
2013-01-20 13:12:00,54.5,28.7,29.92,SE,135,20.7,20.7,37,0.00,CLR,,0.00,WeatherDisplay:10.37,2013-01-20 18:12:00,
2013-01-20 13:17:00,54.7,26.8,29.92,SW,225,21.9,21.9,34,0.00,CLR,,0.00,WeatherDisplay:10.37,2013-01-20 18:17:00,
2013-01-20 13:22:00,54.7,29.5,29.92,SE,135,15.0,15.0,38,0.00,CLR,,0.00,WeatherDisplay:10.37,2013-01-20 18:22:00,
2013-01-20 13:27:00,54.9,29.7,29.92,South,180,17.3,17.3,38,0.00,CLR,,0.00,WeatherDisplay:10.37,2013-01-20 18:27:00,
2013-01-20 13:32:00,54.7,26.8,29.92,SSE,158,23.0,23.0,34,0.00,CLR,,0.00,WeatherDisplay:10.37,2013-01-20 18:32:00,
2013-01-20 13:37:00,54.7,26.1,29.92,NW,315,15.0,15.0,33,0.00,CLR,,0.00,WeatherDisplay:10.37,2013-01-20 18:37:00,
2013-01-20 13:42:00,54.5,25.2,29.91,SE,135,19.6,19.6,32,0.00,CLR,,0.00,WeatherDisplay:10.37,2013-01-20 18:42:00,
2013-01-20 13:47:00,55.2,26.6,29.92,South,180,12.7,12.7,33,0.00,CLR,,0.00,WeatherDisplay:10.37,2013-01-20 18:47:00,
2013-01-20 13:52:00,55.2,25.8,29.92,SE,135,15.0,15.0,32,0.00,CLR,,0.00,WeatherDisplay:10.37,2013-01-20 18:52:00,
2013-01-20 13:57:00,55.0,28.5,29.93,SW,225,18.4,18.4,36,0.00,CLR,,0.00,WeatherDisplay:10.37,2013-01-20 18:57:00,
2013-01-20 14:02:00,55.6,26.2,29.92,South,180,17.3,17.3,32,0.00,CLR,,0.00,WeatherDisplay:10.37,2013-01-20 19:02:00,
2013-01-20 14:07:00,55.0,25.7,29.92,South,180,13.8,13.8,32,0.00,CLR,,0.00,WeatherDisplay:10.37,2013-01-20 19:07:00,
2013-01-20 14:12:00,54.7,25.4,29.92,South,180,16.1,16.1,32,0.00,CLR,,0.00,WeatherDisplay:10.37,2013-01-20 19:12:00,
2013-01-20 14:17:00,54.9,26.3,29.92,South,180,11.5,11.5,33,0.00,CLR,,0.00,WeatherDisplay:10.37,2013-01-20 19:17:00,
2013-01-20 14:22:00,54.7,26.8,29.92,WNW,292,23.0,23.0,34,0.00,CLR,,0.00,WeatherDisplay:10.37,2013-01-20 19:22:00,
2013-01-20 14:27:00,54.5,27.4,29.92,South,180,18.4,18.4,35,0.00,CLR,,0.00,WeatherDisplay:10.37,2013-01-20 19:27:00,
2013-01-20 14:32:00,55.2,27.3,29.92,East,90,10.4,10.4,34,0.00,CLR,,0.00,WeatherDisplay:10.37,2013-01-20 19:32:00,
2013-01-20 14:37:00,55.4,25.2,29.92,SW,225,5.8,8.3,31,0.00,CLR,,0.00,WeatherDisplay:10.37,2013-01-20 19:37:00,
2013-01-20 14:42:00,54.7,27.5,29.92,East,90,17.3,17.3,35,0.00,CLR,,0.00,WeatherDisplay:10.37,2013-01-20 19:42:00,
2013-01-20 14:47:00,54.9,26.3,29.92,NW,315,15.0,15.0,33,0.00,CLR,,0.00,WeatherDisplay:10.37,2013-01-20 19:47:00,
2013-01-20 14:52:00,54.9,27.0,29.92,NW,315,12.7,12.7,34,0.00,CLR,,0.00,WeatherDisplay:10.37,2013-01-20 19:52:00,
2013-01-20 14:57:00,54.7,26.1,29.92,WNW,292,12.7,12.7,33,0.00,CLR,,0.00,WeatherDisplay:10.37,2013-01-20 19:57:00,
2013-01-20 15:02:00,54.7,26.8,29.92,SE,135,9.2,9.2,34,0.00,CLR,,0.00,WeatherDisplay:10.37,2013-01-20 20:02:00,
2013-01-20 15:07:00,54.7,26.8,29.92,SE,135,10.4,10.4,34,0.00,CLR,,0.00,WeatherDisplay:10.37,2013-01-20 20:07:00,
2013-01-20 15:12:00,55.2,25.8,29.93,South,180,9.2,9.2,32,0.00,CLR,,0.00,WeatherDisplay:10.37,2013-01-20 20:12:00,
2013-01-20 15:17:00,55.8,24.8,29.92,South,180,9.2,9.2,30,0.00,CLR,,0.00,WeatherDisplay:10.37,2013-01-20 20:17:00,
2013-01-20 15:23:00,55.4,24.4,29.92,SE,135,10.4,10.4,30,0.00,CLR,,0.00,WeatherDisplay:10.37,2013-01-20 20:23:00,
2013-01-20 15:28:00,54.5,23.7,29.93,SE,135,9.2,9.2,30,0.00,CLR,,0.00,WeatherDisplay:10.37,2013-01-20 20:28:00,
2013-01-20 15:33:00,54.3,23.5,29.93,West,270,4.6,4.6,30,0.00,CLR,,0.00,WeatherDisplay:10.37,2013-01-20 20:33:00,
2013-01-20 15:38:00,53.4,23.5,29.93,SE,135,9.2,9.2,31,0.00,CLR,,0.00,WeatherDisplay:10.37,2013-01-20 20:38:00,
2013-01-20 15:43:00,52.7,24.4,29.93,South,180,9.2,9.2,33,0.00,CLR,,0.00,WeatherDisplay:10.37,2013-01-20 20:43:00,
2013-01-20 15:48:00,52.0,23.7,29.93,SW,225,10.4,10.4,33,0.00,CLR,,0.00,WeatherDisplay:10.37,2013-01-20 20:48:00,
2013-01-20 15:53:00,52.0,23.0,29.94,SW,225,10.4,10.4,32,0.00,CLR,,0.00,WeatherDisplay:10.37,2013-01-20 20:53:00,
2013-01-20 15:58:00,52.0,23.7,29.94,SW,225,10.4,10.4,33,0.00,CLR,,0.00,WeatherDisplay:10.37,2013-01-20 20:58:00,
2013-01-20 16:03:00,51.6,22.7,29.94,East,90,4.6,4.6,32,0.00,CLR,,0.00,WeatherDisplay:10.37,2013-01-20 21:03:00,
2013-01-20 16:08:00,51.3,23.1,29.94,East,90,13.8,13.8,33,0.00,CLR,,0.00,WeatherDisplay:10.37,2013-01-20 21:08:00,
2013-01-20 16:13:00,51.1,22.2,29.94,South,180,4.6,4.6,32,0.00,CLR,,0.00,WeatherDisplay:10.37,2013-01-20 21:13:00,
2013-01-20 16:18:00,50.9,23.5,29.95,South,180,5.8,5.8,34,0.00,CLR,,0.00,WeatherDisplay:10.37,2013-01-20 21:18:00,
2013-01-20 16:23:00,50.4,23.0,29.95,SSW,202,9.2,9.2,34,0.00,CLR,,0.00,WeatherDisplay:10.37,2013-01-20 21:23:00,
2013-01-20 16:28:00,50.2,23.5,29.95,South,180,6.9,6.9,35,0.00,CLR,,0.00,WeatherDisplay:10.37,2013-01-20 21:28:00,
2013-01-20 16:33:00,50.2,22.9,29.95,SE,135,11.5,11.5,34,0.00,CLR,,0.00,WeatherDisplay:10.37,2013-01-20 21:33:00,
2013-01-20 16:38:00,50.0,23.4,29.95,NW,315,4.6,4.6,35,0.00,CLR,,0.00,WeatherDisplay:10.37,2013-01-20 21:38:00,
2013-01-20 16:43:00,49.6,23.1,29.95,SW,225,9.2,9.2,35,0.00,CLR,,0.00,WeatherDisplay:10.37,2013-01-20 21:43:00,
2013-01-20 16:48:00,49.3,23.4,29.96,West,270,9.2,9.2,36,0.00,CLR,,0.00,WeatherDisplay:10.37,2013-01-20 21:48:00,
2013-01-20 16:53:00,48.9,23.1,29.96,SSE,158,9.2,9.2,36,0.00,CLR,,0.00,WeatherDisplay:10.37,2013-01-20 21:53:00,
2013-01-20 16:58:00,48.6,23.4,29.96,SE,135,8.1,8.1,37,0.00,CLR,,0.00,WeatherDisplay:10.37,2013-01-20 21:58:00,
2013-01-20 17:03:00,48.2,22.5,29.96,South,180,5.8,5.8,36,0.00,CLR,,0.00,WeatherDisplay:10.37,2013-01-20 22:03:00,
2013-01-20 17:08:00,48.2,23.7,29.96,NW,315,9.2,9.2,38,0.00,CLR,,0.00,WeatherDisplay:10.37,2013-01-20 22:08:00,
2013-01-20 17:13:00,47.5,23.1,29.97,West,270,8.1,8.1,38,0.00,CLR,,0.00,WeatherDisplay:10.37,2013-01-20 22:13:00,
2013-01-20 17:18:00,47.3,21.7,29.97,SE,135,8.1,8.1,36,0.00,CLR,,0.00,WeatherDisplay:10.37,2013-01-20 22:18:00,
2013-01-20 17:23:00,47.1,23.4,29.97,NW,315,4.6,4.6,39,0.00,CLR,,0.00,WeatherDisplay:10.37,2013-01-20 22:23:00,
2013-01-20 17:28:00,46.6,23.5,29.97,NW,315,5.8,5.8,40,0.00,CLR,,0.00,WeatherDisplay:10.37,2013-01-20 22:28:00,
2013-01-20 17:33:00,46.4,22.1,29.97,NW,315,3.5,3.5,38,0.00,CLR,,0.00,WeatherDisplay:10.37,2013-01-20 22:33:00,
2013-01-20 17:38:00,46.4,22.1,29.97,South,180,8.1,8.1,38,0.00,CLR,,0.00,WeatherDisplay:10.37,2013-01-20 22:38:00,
2013-01-20 17:43:00,45.9,24.0,29.97,NE,45,5.8,5.8,42,0.00,CLR,,0.00,WeatherDisplay:10.37,2013-01-20 22:43:00,
2013-01-20 17:48:00,45.1,22.2,29.98,North,4,4.6,4.6,40,0.00,CLR,,0.00,WeatherDisplay:10.37,2013-01-20 22:48:00,
2013-01-20 17:53:00,44.8,21.9,29.98,NNE,15,5.8,5.8,40,0.00,CLR,,0.00,WeatherDisplay:10.37,2013-01-20 22:53:00,
2013-01-20 17:58:00,44.6,22.3,29.98,NE,45,2.3,2.3,41,0.00,CLR,,0.00,WeatherDisplay:10.37,2013-01-20 22:58:00,
2013-01-20 18:03:00,44.4,20.4,29.98,NE,45,3.5,0.0,38,0.00,CLR,,0.00,WeatherDisplay:10.37,2013-01-20 23:03:00,
2013-01-20 18:08:00,44.4,20.4,29.98,NE,45,2.3,2.3,38,0.00,CLR,,0.00,WeatherDisplay:10.37,2013-01-20 23:08:00,
2013-01-20 18:13:00,44.4,19.7,29.99,NW,315,2.3,2.3,37,0.00,CLR,,0.00,WeatherDisplay:10.37,2013-01-20 23:13:00,
2013-01-20 18:18:00,44.6,20.5,29.99,West,270,3.5,3.5,38,0.00,CLR,,0.00,WeatherDisplay:10.37,2013-01-20 23:18:00,
2013-01-20 18:23:00,44.6,21.1,29.99,South,180,3.5,3.5,39,0.00,CLR,,0.00,WeatherDisplay:10.37,2013-01-20 23:23:00,
2013-01-20 18:28:00,44.1,20.7,29.99,NW,315,5.8,5.8,39,0.00,CLR,,0.00,WeatherDisplay:10.37,2013-01-20 23:28:00,
2013-01-20 18:33:00,43.7,19.1,29.99,SE,135,3.5,3.5,37,0.00,CLR,,0.00,WeatherDisplay:10.37,2013-01-20 23:33:00,
2013-01-20 18:38:00,43.9,19.3,29.99,NW,315,8.1,8.1,37,0.00,CLR,,0.00,WeatherDisplay:10.37,2013-01-20 23:38:00,
2013-01-20 18:43:00,43.9,20.5,30.00,North,0,3.5,3.5,39,0.00,CLR,,0.00,WeatherDisplay:10.37,2013-01-20 23:43:00,
2013-01-20 18:48:00,43.9,18.6,30.00,SW,225,5.8,5.8,36,0.00,CLR,,0.00,WeatherDisplay:10.37,2013-01-20 23:48:00,
2013-01-20 18:53:00,44.2,20.2,30.00,NW,315,3.5,3.5,38,0.00,CLR,,0.00,WeatherDisplay:10.37,2013-01-20 23:53:00,
2013-01-20 18:59:00,43.7,19.7,29.99,West,270,5.8,5.8,38,0.00,CLR,,0.00,WeatherDisplay:10.37,2013-01-20 23:59:00,
2013-01-20 19:04:00,43.7,18.5,30.00,South,180,4.6,4.6,36,0.00,CLR,,0.00,WeatherDisplay:10.37,2013-01-21 00:04:00,
2013-01-20 19:06:00,43.7,18.5,30.00,South,180,4.6,4.6,36,0.00,CLR,,0.00,WeatherDisplay:10.37,2013-01-21 00:06:00,
2013-01-20 19:09:00,43.7,18.5,30.00,South,180,4.6,4.6,36,0.00,CLR,,0.00,WeatherDisplay:10.37,2013-01-21 00:09:00,
2013-01-20 19:14:00,43.7,18.5,30.00,South,180,4.6,4.6,36,0.00,CLR,,0.00,WeatherDisplay:10.37,2013-01-21 00:14:00,
2013-01-20 19:26:00,43.7,18.5,30.00,South,180,4.6,4.6,36,0.00,CLR,,0.00,WeatherDisplay:10.37,2013-01-21 00:26:00,
2013-01-20 19:50:00,43.7,18.5,30.00,South,180,4.6,4.6,36,0.00,CLR,,0.00,WeatherDisplay:10.37,2013-01-21 00:50:00,
2013-01-20 19:56:00,43.7,18.5,30.00,South,180,4.6,4.6,36,0.00,CLR,,0.00,WeatherDisplay:10.37,2013-01-21 00:56:00,
2013-01-20 20:04:00,43.7,18.5,30.00,South,180,4.6,4.6,36,0.00,CLR,,0.00,WeatherDisplay:10.37,2013-01-21 01:04:00,
2013-01-20 20:08:00,43.7,18.5,30.00,North,0,4.6,0.0,36,0.00,CLR,,0.00,WeatherDisplay:10.37,2013-01-21 01:08:00,
2013-01-20 20:09:00,43.7,18.5,30.00,North,0,4.6,0.0,36,0.00,CLR,,0.00,WeatherDisplay:10.37,2013-01-21 01:09:00,
2013-01-20 20:14:00,43.7,18.5,30.00,North,0,4.6,0.0,36,0.00,CLR,,0.00,WeatherDisplay:10.37,2013-01-21 01:14:00,
2013-01-20 20:39:00,43.7,18.5,30.00,North,0,4.6,0.0,36,0.00,CLR,,0.00,WeatherDisplay:10.37,2013-01-21 01:39:00,
2013-01-20 20:44:00,39.7,19.6,30.02,West,270,3.5,3.5,44,0.00,CLR,,0.00,WeatherDisplay:10.37,2013-01-21 01:44:00,
2013-01-20 20:49:00,40.3,18.4,30.01,South,180,4.6,4.6,41,0.00,CLR,,0.00,WeatherDisplay:10.37,2013-01-21 01:49:00,
2013-01-20 20:54:00,40.8,16.5,30.02,NW,315,3.5,3.5,37,0.00,CLR,,0.00,WeatherDisplay:10.37,2013-01-21 01:54:00,
2013-01-20 20:59:00,41.0,16.7,30.02,NW,315,2.3,2.3,37,0.00,CLR,,0.00,WeatherDisplay:10.37,2013-01-21 01:59:00,
2013-01-20 21:04:00,41.0,16.7,30.02,NW,315,1.1,0.0,37,0.00,CLR,,0.00,WeatherDisplay:10.37,2013-01-21 02:04:00,
2013-01-20 21:09:00,41.2,17.5,30.02,SW,225,8.1,8.1,38,0.00,CLR,,0.00,WeatherDisplay:10.37,2013-01-21 02:09:00,
2013-01-20 21:14:00,41.2,17.5,30.02,South,180,9.2,9.2,38,0.00,CLR,,0.00,WeatherDisplay:10.37,2013-01-21 02:14:00,
2013-01-20 21:19:00,41.4,16.4,30.01,South,180,6.9,6.9,36,0.00,CLR,,0.00,WeatherDisplay:10.37,2013-01-21 02:19:00,
2013-01-20 21:24:00,41.5,17.8,30.02,NW,315,6.9,6.9,38,0.00,CLR,,0.00,WeatherDisplay:10.37,2013-01-21 02:24:00,
2013-01-20 21:29:00,41.2,16.2,30.02,SW,225,4.6,4.6,36,0.00,CLR,,0.00,WeatherDisplay:10.37,2013-01-21 02:29:00,
2013-01-20 21:34:00,41.5,15.9,30.01,South,180,12.7,12.7,35,0.00,CLR,,0.00,WeatherDisplay:10.37,2013-01-21 02:34:00,
2013-01-20 21:39:00,41.7,16.0,30.01,WSW,248,17.3,17.3,35,0.00,CLR,,0.00,WeatherDisplay:10.37,2013-01-21 02:39:00,
2013-01-20 21:44:00,41.7,16.0,30.01,NW,315,15.0,15.0,35,0.00,CLR,,0.00,WeatherDisplay:10.37,2013-01-21 02:44:00,
2013-01-20 21:49:00,41.7,16.7,30.01,SW,225,12.7,12.7,36,0.00,CLR,,0.00,WeatherDisplay:10.37,2013-01-21 02:49:00,
2013-01-20 21:54:00,41.5,16.5,30.01,SSE,158,11.5,11.5,36,0.00,CLR,,0.00,WeatherDisplay:10.37,2013-01-21 02:54:00,
2013-01-20 21:59:00,41.4,16.4,30.01,South,180,8.1,8.1,36,0.00,CLR,,0.00,WeatherDisplay:10.37,2013-01-21 02:59:00,
2013-01-20 22:04:00,41.4,16.4,30.01,SE,135,3.5,3.5,36,0.00,CLR,,0.00,WeatherDisplay:10.37,2013-01-21 03:04:00,
2013-01-20 22:09:00,41.2,16.2,30.01,SE,135,6.9,6.9,36,0.00,CLR,,0.00,WeatherDisplay:10.37,2013-01-21 03:09:00,
2013-01-20 22:14:00,41.2,17.5,30.01,SW,225,11.5,11.5,38,0.00,CLR,,0.00,WeatherDisplay:10.37,2013-01-21 03:14:00,
2013-01-20 22:19:00,41.0,16.7,30.02,SW,225,5.8,5.8,37,0.00,CLR,,0.00,WeatherDisplay:10.37,2013-01-21 03:19:00,
2013-01-20 22:24:00,41.0,16.0,30.02,SW,225,12.7,12.7,36,0.00,CLR,,0.00,WeatherDisplay:10.37,2013-01-21 03:24:00,
2013-01-20 22:29:00,41.0,17.3,30.01,North,0,10.4,10.4,38,0.00,CLR,,0.00,WeatherDisplay:10.37,2013-01-21 03:29:00,
2013-01-20 22:34:00,40.3,19.5,30.01,NW,315,3.5,3.5,43,0.00,CLR,,0.00,WeatherDisplay:10.37,2013-01-21 03:34:00,
2013-01-20 22:39:00,39.2,18.0,30.01,NW,315,4.6,4.6,42,0.00,CLR,,0.00,WeatherDisplay:10.37,2013-01-21 03:39:00,
2013-01-20 22:44:00,38.7,17.0,30.01,East,90,3.5,3.5,41,0.00,CLR,,0.00,WeatherDisplay:10.37,2013-01-21 03:44:00,
2013-01-20 22:49:00,38.5,17.9,30.01,NW,315,3.5,3.5,43,0.00,CLR,,0.00,WeatherDisplay:10.37,2013-01-21 03:49:00,
2013-01-20 22:54:00,38.1,17.0,30.01,SW,225,3.5,3.5,42,0.00,CLR,,0.00,WeatherDisplay:10.37,2013-01-21 03:54:00,
2013-01-20 22:59:00,38.1,17.0,30.02,SW,225,3.5,3.8,42,0.00,CLR,,0.00,WeatherDisplay:10.37,2013-01-21 03:59:00,
2013-01-20 23:04:00,38.1,17.6,30.02,SW,225,8.1,8.1,43,0.00,CLR,,0.00,WeatherDisplay:10.37,2013-01-21 04:04:00,
2013-01-20 23:09:00,38.7,16.4,30.02,South,180,8.1,8.1,40,0.00,CLR,,0.00,WeatherDisplay:10.37,2013-01-21 04:09:00,
2013-01-20 23:14:00,38.8,15.4,30.02,SW,225,5.8,5.8,38,0.00,CLR,,0.00,WeatherDisplay:10.37,2013-01-21 04:14:00,
2013-01-20 23:19:00,39.2,15.7,30.02,NW,315,4.6,4.6,38,0.00,CLR,,0.00,WeatherDisplay:10.37,2013-01-21 04:19:00,
2013-01-20 23:24:00,39.4,15.2,30.02,West,270,6.9,6.9,37,0.00,CLR,,0.00,WeatherDisplay:10.37,2013-01-21 04:24:00,
2013-01-20 23:29:00,39.4,14.6,30.02,West,270,8.1,8.1,36,0.00,CLR,,0.00,WeatherDisplay:10.37,2013-01-21 04:29:00,
2013-01-20 23:34:00,39.4,15.2,30.02,West,270,5.8,5.8,37,0.00,CLR,,0.00,WeatherDisplay:10.37,2013-01-21 04:34:00,
2013-01-20 23:39:00,39.0,14.3,30.02,NW,315,3.5,3.5,36,0.00,CLR,,0.00,WeatherDisplay:10.37,2013-01-21 04:39:00,
2013-01-20 23:44:00,38.8,14.1,30.02,NW,315,4.6,4.6,36,0.00,CLR,,0.00,WeatherDisplay:10.37,2013-01-21 04:44:00,
2013-01-20 23:49:00,38.7,14.0,30.02,NW,315,3.5,3.5,36,0.00,CLR,,0.00,WeatherDisplay:10.37,2013-01-21 04:49:00,
2013-01-20 23:54:00,38.7,14.0,30.02,NW,315,4.6,0.0,36,0.00,CLR,,0.00,WeatherDisplay:10.37,2013-01-21 04:54:00,
2013-01-20 23:59:00,38.7,13.3,30.01,West,270,4.6,4.6,35,0.00,CLR,,0.00,WeatherDisplay:10.37,2013-01-21 04:59:00,